KGMU/GMU METAR and TAF weather

Enter ICAO airport designator
Station Type Date Time Source
KGMU METAR 2019/02/16 02:53 UTC NOAA

KGMU 160253Z AUTO 22003KT 5SM -RA BR BKN012 OVC021 14/13 A2984 RMK AO2 SLP102 P0011 60013 T01390133 50002


Station Type Date Time Source
KGMU Decoded METAR 2019/02/16 02:53 UTC NOAA

GREENVILLE DOWNTOWN AIRPORT , SC, United States (KGMU) 34-51N 82-21W 315M
Feb 15, 2019 - 09:53 PM EST / 2019.02.16 0253 UTC
Wind: from the SW (220 degrees) at 3 MPH (3 KT):0
Visibility: 5 mile(s):0
Sky conditions: overcast
Weather: light rain; mist
Precipitation last hour: 0.11 inches
Temperature: 57.0 F (13.9 C)
Dew Point: 55.9 F (13.3 C)
Relative Humidity: 96%
Pressure (altimeter): 29.84 in. Hg (1010 hPa)
Pressure tendency: 0.01 inches (0.2 hPa) higher than three hours ago
ob: KGMU 160253Z AUTO 22003KT 5SM -RA BR BKN012 OVC021 14/13 A2984 RMK AO2 SLP102 P0011 60013 T01390133 50002
cycle: 3

Station Type Date Time Source
KGMU TAF 2019/02/16 03:40 UTC NOAA

TAF
AMD KGMU 160238Z 1603/1624 21005KT 3SM -SHRA BR SCT008 OVC012
TEMPO 1603/1605 2SM SHRA BR OVC007
FM160500 19004KT 3SM SHRA BR OVC005
FM161400 36006KT 4SM BR VCSH OVC004 PROB30 1614/1616 5SM -SHRA BR OVC007
FM161600 02008KT P6SM OVC010


Example: see airport list